Time,TemperatureF,DewpointF,PressureIn,WindDirection,WindDirectionDegrees,WindSpeedMPH,WindSpeedGustMPH,Humidity,HourlyPrecipIn,Conditions,Clouds,dailyrainin,SoftwareType,DateUTC
2013-03-23 00:00:00,51.1,26.3,29.66,WNW,302,10.0,13.0,38,0.00,,,0.00,Wunderground v.1.15,2013-03-23 06:00:00,
2013-03-23 00:06:00,51.5,26.1,29.65,WNW,291,12.0,18.0,37,0.00,,,0.00,Wunderground v.1.15,2013-03-23 06:06:00,
2013-03-23 00:11:00,51.4,26.0,29.65,West,275,12.0,13.0,37,0.00,,,0.00,Wunderground v.1.15,2013-03-23 06:11:00,
2013-03-23 00:17:00,51.3,25.2,29.65,WNW,288,13.0,17.0,36,0.00,,,0.00,Wunderground v.1.15,2013-03-23 06:17:00,
2013-03-23 00:22:00,51.4,24.6,29.66,WNW,292,14.0,14.0,35,0.00,,,0.00,Wunderground v.1.15,2013-03-23 06:22:00,
2013-03-23 00:28:00,51.4,24.6,29.66,WNW,286,13.0,14.0,35,0.00,,,0.00,Wunderground v.1.15,2013-03-23 06:28:00,
2013-03-23 00:34:00,51.3,23.8,29.66,WNW,285,12.0,13.0,34,0.00,,,0.00,Wunderground v.1.15,2013-03-23 06:34:00,
2013-03-23 00:40:00,51.2,24.5,29.66,WNW,284,12.0,12.0,35,0.00,,,0.00,Wunderground v.1.15,2013-03-23 06:40:00,
2013-03-23 00:45:00,51.1,24.4,29.66,West,279,11.0,13.0,35,0.00,,,0.00,Wunderground v.1.15,2013-03-23 06:45:00,
2013-03-23 00:51:00,51.1,24.4,29.66,West,279,11.0,11.0,35,0.00,,,0.00,Wunderground v.1.15,2013-03-23 06:51:00,
2013-03-23 00:57:00,50.7,24.7,29.66,West,276,9.0,11.0,36,0.00,,,0.00,Wunderground v.1.15,2013-03-23 06:57:00,
2013-03-23 01:02:00,50.4,25.1,29.66,West,273,7.0,8.0,37,0.00,,,0.00,Wunderground v.1.15,2013-03-23 07:02:00,
2013-03-23 01:07:00,50.1,25.5,29.66,West,273,7.0,8.0,38,0.00,,,0.00,Wunderground v.1.15,2013-03-23 07:07:00,
2013-03-23 01:13:00,49.8,25.8,29.66,West,273,7.0,10.0,39,0.00,,,0.00,Wunderground v.1.15,2013-03-23 07:13:00,
2013-03-23 01:18:00,49.6,26.2,29.66,West,274,7.0,10.0,40,0.00,,,0.00,Wunderground v.1.15,2013-03-23 07:18:00,
2013-03-23 01:24:00,49.2,26.5,29.66,West,273,6.0,7.0,41,0.00,,,0.00,Wunderground v.1.15,2013-03-23 07:24:00,
2013-03-23 01:29:00,48.7,26.6,29.66,West,273,4.0,7.0,42,0.00,,,0.00,Wunderground v.1.15,2013-03-23 07:29:00,
2013-03-23 01:35:00,48.4,26.3,29.66,West,269,3.0,5.0,42,0.00,,,0.00,Wunderground v.1.15,2013-03-23 07:35:00,
2013-03-23 01:41:00,48.2,26.2,29.66,West,263,3.0,5.0,42,0.00,,,0.00,Wunderground v.1.15,2013-03-23 07:41:00,
2013-03-23 01:46:00,48.3,26.2,29.66,WSW,254,5.0,9.0,42,0.00,,,0.00,Wunderground v.1.15,2013-03-23 07:46:00,
2013-03-23 01:52:00,48.2,26.2,29.67,WSW,254,3.0,4.0,42,0.00,,,0.00,Wunderground v.1.15,2013-03-23 07:52:00,
2013-03-23 01:57:00,47.9,26.5,29.67,WSW,254,1.0,4.0,43,0.00,,,0.00,Wunderground v.1.15,2013-03-23 07:57:00,
2013-03-23 02:03:00,47.6,26.7,29.67,WSW,256,2.0,5.0,44,0.00,,,0.00,Wunderground v.1.15,2013-03-23 08:03:00,
2013-03-23 02:09:00,47.9,27.0,29.67,West,261,5.0,8.0,44,0.00,,,0.00,Wunderground v.1.15,2013-03-23 08:09:00,
2013-03-23 02:15:00,47.8,26.9,29.67,West,259,5.0,6.0,44,0.00,,,0.00,Wunderground v.1.15,2013-03-23 08:15:00,
2013-03-23 02:21:00,47.6,26.7,29.67,West,259,5.0,5.0,44,0.00,,,0.00,Wunderground v.1.15,2013-03-23 08:21:00,
2013-03-23 02:27:00,47.6,26.7,29.67,West,274,6.0,9.0,44,0.00,,,0.00,Wunderground v.1.15,2013-03-23 08:27:00,
2013-03-23 02:32:00,47.4,26.6,29.67,West,274,6.0,6.0,44,0.00,,,0.00,Wunderground v.1.15,2013-03-23 08:32:00,
2013-03-23 02:38:00,47.0,26.7,29.67,West,275,5.0,6.0,45,0.00,,,0.00,Wunderground v.1.15,2013-03-23 08:38:00,
2013-03-23 02:44:00,46.6,26.9,29.67,West,273,5.0,10.0,46,0.00,,,0.00,Wunderground v.1.15,2013-03-23 08:44:00,
2013-03-23 02:50:00,46.5,26.8,29.67,West,272,7.0,9.0,46,0.00,,,0.00,Wunderground v.1.15,2013-03-23 08:50:00,
2013-03-23 02:56:00,46.5,26.8,29.67,West,272,8.0,9.0,46,0.00,,,0.00,Wunderground v.1.15,2013-03-23 08:56:00,
2013-03-23 03:01:00,46.3,26.6,29.67,West,272,6.0,7.0,46,0.00,,,0.00,Wunderground v.1.15,2013-03-23 09:01:00,
2013-03-23 03:07:00,46.0,26.4,29.67,West,272,6.0,7.0,46,0.00,,,0.00,Wunderground v.1.15,2013-03-23 09:07:00,
2013-03-23 03:13:00,45.8,26.7,29.66,West,272,5.0,6.0,47,0.00,,,0.00,Wunderground v.1.15,2013-03-23 09:13:00,
2013-03-23 03:18:00,45.5,26.4,29.66,West,272,4.0,6.0,47,0.00,,,0.00,Wunderground v.1.15,2013-03-23 09:18:00,
2013-03-23 03:24:00,45.1,26.1,29.66,West,272,2.0,4.0,47,0.00,,,0.00,Wunderground v.1.15,2013-03-23 09:24:00,
2013-03-23 03:29:00,44.7,25.7,29.66,West,272,2.0,5.0,47,0.00,,,0.00,Wunderground v.1.15,2013-03-23 09:29:00,
2013-03-23 03:34:00,44.6,25.6,29.66,West,272,2.0,2.0,47,0.00,,,0.00,Wunderground v.1.15,2013-03-23 09:34:00,
2013-03-23 03:39:00,44.4,25.9,29.67,West,272,1.0,3.0,48,0.00,,,0.00,Wunderground v.1.15,2013-03-23 09:39:00,
2013-03-23 03:45:00,43.8,25.9,29.66,West,272,1.0,2.0,49,0.00,,,0.00,Wunderground v.1.15,2013-03-23 09:45:00,
2013-03-23 03:50:00,43.6,26.2,29.67,West,272,1.0,1.0,50,0.00,,,0.00,Wunderground v.1.15,2013-03-23 09:50:00,
2013-03-23 03:56:00,43.1,25.2,29.66,West,272,1.0,4.0,49,0.00,,,0.00,Wunderground v.1.15,2013-03-23 09:56:00,
2013-03-23 04:02:00,42.6,26.2,29.67,West,272,2.0,2.0,52,0.00,,,0.00,Wunderground v.1.15,2013-03-23 10:02:00,
2013-03-23 04:08:00,43.5,26.1,29.66,West,272,1.0,4.0,50,0.00,,,0.00,Wunderground v.1.15,2013-03-23 10:08:00,
2013-03-23 04:14:00,43.5,25.6,29.66,West,272,1.0,1.0,49,0.00,,,0.00,Wunderground v.1.15,2013-03-23 10:14:00,
2013-03-23 04:19:00,43.7,25.8,29.66,West,272,0.0,1.0,49,0.00,,,0.00,Wunderground v.1.15,2013-03-23 10:19:00,
2013-03-23 04:25:00,44.0,24.5,29.66,West,272,0.0,0.0,46,0.00,,,0.00,Wunderground v.1.15,2013-03-23 10:25:00,
2013-03-23 04:31:00,43.8,24.3,29.66,West,272,0.0,3.0,46,0.00,,,0.00,Wunderground v.1.15,2013-03-23 10:31:00,
2013-03-23 04:37:00,42.7,23.3,29.66,West,272,1.0,4.0,46,0.00,,,0.00,Wunderground v.1.15,2013-03-23 10:37:00,
2013-03-23 04:42:00,42.5,22.6,29.66,West,273,3.0,4.0,45,0.00,,,0.00,Wunderground v.1.15,2013-03-23 10:42:00,
2013-03-23 04:48:00,41.3,22.1,29.66,West,273,3.0,5.0,46,0.00,,,0.00,Wunderground v.1.15,2013-03-23 10:48:00,
2013-03-23 04:54:00,40.2,21.0,29.66,West,273,4.0,5.0,46,0.00,,,0.00,Wunderground v.1.15,2013-03-23 10:54:00,
2013-03-23 04:59:00,39.6,20.0,29.66,West,273,4.0,5.0,45,0.00,,,0.00,Wunderground v.1.15,2013-03-23 10:59:00,
2013-03-23 05:04:00,39.4,14.0,29.66,NW,315,4.0,6.0,35,0.00,,,0.00,Wunderground v.1.15,2013-03-23 11:04:00,
2013-03-23 05:09:00,39.8,14.3,29.66,NW,315,5.0,6.0,35,0.00,,,0.00,Wunderground v.1.15,2013-03-23 11:09:00,
2013-03-23 05:15:00,40.1,11.1,29.66,NW,315,4.0,5.0,30,0.00,,,0.00,Wunderground v.1.15,2013-03-23 11:15:00,
2013-03-23 05:20:00,40.4,9.8,29.66,NW,315,4.0,4.0,28,0.00,,,0.00,Wunderground v.1.15,2013-03-23 11:20:00,
2013-03-23 05:25:00,40.5,10.7,29.66,NW,315,3.0,4.0,29,0.00,,,0.00,Wunderground v.1.15,2013-03-23 11:25:00,
2013-03-23 05:32:00,39.4,11.2,29.67,NW,315,0.0,1.0,31,0.00,,,0.00,Wunderground v.1.15,2013-03-23 11:32:00,
2013-03-23 05:37:00,38.8,10.0,29.66,NW,315,0.0,1.0,30,0.00,,,0.00,Wunderground v.1.15,2013-03-23 11:37:00,
2013-03-23 05:42:00,38.3,9.5,29.67,NW,316,1.0,4.0,30,0.00,,,0.00,Wunderground v.1.15,2013-03-23 11:42:00,
2013-03-23 05:47:00,38.4,8.9,29.67,NW,316,1.0,4.0,29,0.00,,,0.00,Wunderground v.1.15,2013-03-23 11:47:00,
2013-03-23 05:53:00,38.2,7.9,29.67,NW,316,0.0,1.0,28,0.00,,,0.00,Wunderground v.1.15,2013-03-23 11:53:00,
2013-03-23 05:58:00,38.5,4.8,29.67,NW,316,0.0,1.0,24,0.00,,,0.00,Wunderground v.1.15,2013-03-23 11:58:00,
2013-03-23 06:03:00,38.9,6.9,29.67,NW,316,0.0,0.0,26,0.00,,,0.00,Wunderground v.1.15,2013-03-23 12:03:00,
2013-03-23 06:08:00,38.7,8.3,29.67,NW,316,0.0,3.0,28,0.00,,,0.00,Wunderground v.1.15,2013-03-23 12:08:00,
2013-03-23 06:14:00,38.1,9.4,29.67,NW,316,1.0,3.0,30,0.00,,,0.00,Wunderground v.1.15,2013-03-23 12:14:00,
2013-03-23 06:20:00,37.4,10.2,29.67,NW,315,2.0,3.0,32,0.00,,,0.00,Wunderground v.1.15,2013-03-23 12:20:00,
2013-03-23 06:25:00,37.7,9.0,29.68,NW,315,3.0,5.0,30,0.00,,,0.00,Wunderground v.1.15,2013-03-23 12:25:00,
2013-03-23 06:31:00,38.3,5.5,29.68,NW,315,5.0,5.0,25,0.00,,,0.00,Wunderground v.1.15,2013-03-23 12:31:00,
2013-03-23 06:37:00,38.6,3.9,29.69,NW,315,5.0,7.0,23,0.00,,,0.00,Wunderground v.1.15,2013-03-23 12:37:00,
2013-03-23 06:43:00,39.4,1.6,29.70,NW,316,5.0,8.0,20,0.00,,,0.00,Wunderground v.1.15,2013-03-23 12:43:00,
2013-03-23 06:48:00,39.7,1.8,29.71,NNW,331,5.0,8.0,20,0.00,,,0.00,Wunderground v.1.15,2013-03-23 12:48:00,
2013-03-23 06:54:00,39.5,1.7,29.71,NNW,331,3.0,4.0,20,0.00,,,0.00,Wunderground v.1.15,2013-03-23 12:54:00,
2013-03-23 07:00:00,38.3,1.7,29.72,NNW,331,1.0,3.0,21,0.00,,,0.00,Wunderground v.1.15,2013-03-23 13:00:00,
2013-03-23 07:05:00,37.7,2.2,29.73,NNW,346,2.0,4.0,22,0.00,,,0.00,Wunderground v.1.15,2013-03-23 13:05:00,
2013-03-23 07:11:00,37.0,3.5,29.73,NNW,346,2.0,2.0,24,0.00,,,0.00,Wunderground v.1.15,2013-03-23 13:11:00,
2013-03-23 07:17:00,37.1,5.3,29.73,NNW,348,1.0,4.0,26,0.00,,,0.00,Wunderground v.1.15,2013-03-23 13:17:00,
2013-03-23 07:22:00,37.6,6.6,29.74,NNE,28,3.0,4.0,27,0.00,,,0.00,Wunderground v.1.15,2013-03-23 13:22:00,
2013-03-23 07:28:00,37.8,5.9,29.75,ENE,77,4.0,6.0,26,0.00,,,0.00,Wunderground v.1.15,2013-03-23 13:28:00,
2013-03-23 07:34:00,37.8,6.8,29.75,ENE,77,5.0,6.0,27,0.00,,,0.00,Wunderground v.1.15,2013-03-23 13:34:00,
2013-03-23 07:39:00,37.6,6.6,29.75,East,80,6.0,6.0,27,0.00,,,0.00,Wunderground v.1.15,2013-03-23 13:39:00,
2013-03-23 07:45:00,37.5,7.3,29.75,ENE,69,6.0,7.0,28,0.00,,,0.00,Wunderground v.1.15,2013-03-23 13:45:00,
2013-03-23 07:51:00,37.5,7.3,29.76,East,79,8.0,12.0,28,0.00,,,0.00,Wunderground v.1.15,2013-03-23 13:51:00,
2013-03-23 07:57:00,37.5,7.3,29.76,ENE,73,10.0,12.0,28,0.00,,,0.00,Wunderground v.1.15,2013-03-23 13:57:00,
2013-03-23 08:02:00,37.5,7.3,29.76,ENE,60,9.0,10.0,28,0.00,,,0.00,Wunderground v.1.15,2013-03-23 14:02:00,
2013-03-23 08:08:00,37.5,7.3,29.77,ENE,59,7.0,10.0,28,0.00,,,0.00,Wunderground v.1.15,2013-03-23 14:08:00,
2013-03-23 08:13:00,37.6,7.4,29.77,NNE,23,6.0,10.0,28,0.00,,,0.00,Wunderground v.1.15,2013-03-23 14:13:00,
2013-03-23 08:18:00,37.5,7.3,29.78,NNE,25,6.0,11.0,28,0.00,,,0.00,Wunderground v.1.15,2013-03-23 14:18:00,
2013-03-23 08:24:00,37.5,7.3,29.79,NNE,28,6.0,8.0,28,0.00,,,0.00,Wunderground v.1.15,2013-03-23 14:24:00,
2013-03-23 08:29:00,37.8,7.6,29.79,NNE,31,6.0,12.0,28,0.00,,,0.00,Wunderground v.1.15,2013-03-23 14:29:00,
2013-03-23 08:35:00,37.9,6.8,29.79,NNE,22,6.0,10.0,27,0.00,,,0.00,Wunderground v.1.15,2013-03-23 14:35:00,
2013-03-23 08:40:00,37.7,6.7,29.80,NNE,17,7.0,7.0,27,0.00,,,0.00,Wunderground v.1.15,2013-03-23 14:40:00,
2013-03-23 08:46:00,37.8,6.8,29.80,North,9,7.0,10.0,27,0.00,,,0.00,Wunderground v.1.15,2013-03-23 14:46:00,
2013-03-23 08:51:00,37.8,6.8,29.79,NNE,15,8.0,14.0,27,0.00,,,0.00,Wunderground v.1.15,2013-03-23 14:51:00,
2013-03-23 08:56:00,37.8,5.9,29.79,NNE,31,10.0,16.0,26,0.00,,,0.00,Wunderground v.1.15,2013-03-23 14:56:00,
2013-03-23 09:01:00,37.9,6.0,29.80,NNE,29,10.0,11.0,26,0.00,,,0.00,Wunderground v.1.15,2013-03-23 15:01:00,
2013-03-23 09:07:00,38.0,5.2,29.80,NNE,21,10.0,14.0,25,0.00,,,0.00,Wunderground v.1.15,2013-03-23 15:07:00,
2013-03-23 09:13:00,38.2,5.4,29.80,NNE,20,9.0,10.0,25,0.00,,,0.00,Wunderground v.1.15,2013-03-23 15:13:00,
2013-03-23 09:18:00,38.3,5.5,29.80,North,355,9.0,16.0,25,0.00,,,0.00,Wunderground v.1.15,2013-03-23 15:18:00,
2013-03-23 09:24:00,38.8,5.9,29.80,North,5,10.0,12.0,25,0.00,,,0.00,Wunderground v.1.15,2013-03-23 15:24:00,
2013-03-23 09:30:00,39.2,6.3,29.80,NNE,14,8.0,8.0,25,0.00,,,0.00,Wunderground v.1.15,2013-03-23 15:30:00,
2013-03-23 09:36:00,39.4,5.5,29.80,North,9,8.0,15.0,24,0.00,,,0.00,Wunderground v.1.15,2013-03-23 15:36:00,
2013-03-23 09:41:00,40.0,6.0,29.80,NNE,12,8.0,8.0,24,0.00,,,0.00,Wunderground v.1.15,2013-03-23 15:41:00,
2013-03-23 09:47:00,40.3,5.4,29.80,NNW,342,9.0,12.0,23,0.00,,,0.00,Wunderground v.1.15,2013-03-23 15:47:00,
2013-03-23 09:52:00,40.3,4.4,29.80,North,360,10.0,17.0,22,0.00,,,0.00,Wunderground v.1.15,2013-03-23 15:52:00,
2013-03-23 09:58:00,40.1,5.2,29.81,North,355,11.0,17.0,23,0.00,,,0.00,Wunderground v.1.15,2013-03-23 15:58:00,
2013-03-23 10:03:00,40.4,4.5,29.80,NNE,17,11.0,15.0,22,0.00,,,0.00,Wunderground v.1.15,2013-03-23 16:03:00,
2013-03-23 10:09:00,40.5,4.6,29.81,NNE,31,12.0,17.0,22,0.00,,,0.00,Wunderground v.1.15,2013-03-23 16:09:00,
2013-03-23 10:15:00,41.0,4.0,29.80,NNW,339,11.0,16.0,21,0.00,,,0.00,Wunderground v.1.15,2013-03-23 16:15:00,
2013-03-23 10:20:00,41.4,4.3,29.81,NNW,340,11.0,11.0,21,0.00,,,0.00,Wunderground v.1.15,2013-03-23 16:20:00,
2013-03-23 10:26:00,41.9,4.7,29.81,NNW,340,10.0,12.0,21,0.00,,,0.00,Wunderground v.1.15,2013-03-23 16:26:00,
2013-03-23 10:32:00,41.8,3.6,29.81,NNW,348,10.0,14.0,20,0.00,,,0.00,Wunderground v.1.15,2013-03-23 16:32:00,
2013-03-23 10:37:00,42.0,3.8,29.81,NNW,332,10.0,14.0,20,0.00,,,0.00,Wunderground v.1.15,2013-03-23 16:37:00,
2013-03-23 10:42:00,41.7,4.6,29.81,NNW,345,10.0,11.0,21,0.00,,,0.00,Wunderground v.1.15,2013-03-23 16:42:00,
2013-03-23 10:48:00,41.6,3.4,29.81,NNW,336,11.0,17.0,20,0.00,,,0.00,Wunderground v.1.15,2013-03-23 16:48:00,
2013-03-23 10:53:00,41.7,3.5,29.81,NNW,336,12.0,18.0,20,0.00,,,0.00,Wunderground v.1.15,2013-03-23 16:53:00,
2013-03-23 10:59:00,41.6,2.3,29.81,NNW,347,12.0,18.0,19,0.00,,,0.00,Wunderground v.1.15,2013-03-23 16:59:00,
2013-03-23 11:04:00,42.1,2.7,29.81,NNW,345,13.0,19.0,19,0.00,,,0.00,Wunderground v.1.15,2013-03-23 17:04:00,
2013-03-23 11:10:00,41.8,2.5,29.80,NNW,345,13.0,13.0,19,0.00,,,0.00,Wunderground v.1.15,2013-03-23 17:10:00,
2013-03-23 11:16:00,42.4,3.0,29.81,North,360,15.0,21.0,19,0.00,,,0.00,Wunderground v.1.15,2013-03-23 17:16:00,
2013-03-23 11:22:00,42.9,2.2,29.81,North,351,15.0,19.0,18,0.00,,,0.00,Wunderground v.1.15,2013-03-23 17:22:00,
2013-03-23 11:28:00,42.2,1.6,29.80,North,355,16.0,26.0,18,0.00,,,0.00,Wunderground v.1.15,2013-03-23 17:28:00,
2013-03-23 11:33:00,42.5,1.9,29.81,NNW,336,17.0,21.0,18,0.00,,,0.00,Wunderground v.1.15,2013-03-23 17:33:00,
2013-03-23 11:39:00,43.1,1.2,29.81,NNW,334,17.0,21.0,17,0.00,,,0.00,Wunderground v.1.15,2013-03-23 17:39:00,
2013-03-23 11:44:00,43.0,2.3,29.80,NNW,336,17.0,20.0,18,0.00,,,0.00,Wunderground v.1.15,2013-03-23 17:44:00,
2013-03-23 11:50:00,43.4,2.6,29.81,NNW,331,15.0,17.0,18,0.00,,,0.00,Wunderground v.1.15,2013-03-23 17:50:00,
2013-03-23 11:55:00,44.0,1.9,29.81,North,355,15.0,20.0,17,0.00,,,0.00,Wunderground v.1.15,2013-03-23 17:55:00,
2013-03-23 12:00:00,42.9,1.0,29.81,North,5,16.0,16.0,17,0.00,,,0.00,Wunderground v.1.15,2013-03-23 18:00:00,
2013-03-23 12:06:00,42.2,1.6,29.82,NNW,342,18.0,24.0,18,0.00,,,0.00,Wunderground v.1.15,2013-03-23 18:06:00,
2013-03-23 12:11:00,42.3,1.7,29.81,NNW,330,18.0,21.0,18,0.00,,,0.00,Wunderground v.1.15,2013-03-23 18:11:00,
2013-03-23 12:17:00,42.8,0.9,29.82,North,355,16.0,21.0,17,0.00,,,0.00,Wunderground v.1.15,2013-03-23 18:17:00,
2013-03-23 12:23:00,43.0,1.1,29.82,North,360,16.0,22.0,17,0.00,,,0.00,Wunderground v.1.15,2013-03-23 18:23:00,
2013-03-23 12:28:00,42.2,1.6,29.82,NNW,348,18.0,25.0,18,0.00,,,0.00,Wunderground v.1.15,2013-03-23 18:28:00,
2013-03-23 12:34:00,42.8,0.9,29.83,NNW,334,18.0,25.0,17,0.00,,,0.00,Wunderground v.1.15,2013-03-23 18:34:00,
2013-03-23 12:39:00,42.7,2.1,29.83,North,355,17.0,25.0,18,0.00,,,0.00,Wunderground v.1.15,2013-03-23 18:39:00,
2013-03-23 12:45:00,42.5,1.9,29.83,North,355,17.0,22.0,18,0.00,,,0.00,Wunderground v.1.15,2013-03-23 18:45:00,
2013-03-23 12:51:00,42.8,2.1,29.83,North,5,16.0,23.0,18,0.00,,,0.00,Wunderground v.1.15,2013-03-23 18:51:00,
2013-03-23 12:56:00,42.5,1.9,29.82,NNE,13,16.0,31.0,18,0.00,,,0.00,Wunderground v.1.15,2013-03-23 18:56:00,
2013-03-23 13:01:00,42.1,1.6,29.83,North,5,19.0,19.0,18,0.00,,,0.00,Wunderground v.1.15,2013-03-23 19:01:00,
2013-03-23 13:07:00,42.0,0.3,29.84,North,355,18.0,25.0,17,0.00,,,0.00,Wunderground v.1.15,2013-03-23 19:07:00,
2013-03-23 13:12:00,42.1,0.3,29.84,NNW,327,18.0,26.0,17,0.00,,,0.00,Wunderground v.1.15,2013-03-23 19:12:00,
2013-03-23 13:17:00,41.6,-0.1,29.84,North,351,19.0,26.0,17,0.00,,,0.00,Wunderground v.1.15,2013-03-23 19:17:00,
2013-03-23 13:23:00,42.3,0.5,29.85,North,5,19.0,21.0,17,0.00,,,0.00,Wunderground v.1.15,2013-03-23 19:23:00,
2013-03-23 13:28:00,41.5,-0.2,29.85,North,355,19.0,30.0,17,0.00,,,0.00,Wunderground v.1.15,2013-03-23 19:28:00,
2013-03-23 13:34:00,42.0,0.3,29.86,North,355,18.0,24.0,17,0.00,,,0.00,Wunderground v.1.15,2013-03-23 19:34:00,
2013-03-23 13:39:00,42.4,1.8,29.85,North,355,17.0,24.0,18,0.00,,,0.00,Wunderground v.1.15,2013-03-23 19:39:00,
2013-03-23 13:45:00,42.0,1.5,29.85,NW,325,17.0,21.0,18,0.00,,,0.00,Wunderground v.1.15,2013-03-23 19:45:00,
2013-03-23 13:50:00,41.5,-0.2,29.85,NNW,340,20.0,23.0,17,0.00,,,0.00,Wunderground v.1.15,2013-03-23 19:50:00,
2013-03-23 13:56:00,42.5,0.7,29.85,NNW,338,20.0,23.0,17,0.00,,,0.00,Wunderground v.1.15,2013-03-23 19:56:00,
2013-03-23 14:02:00,43.2,-0.1,29.86,NNW,330,19.0,24.0,16,0.00,,,0.00,Wunderground v.1.15,2013-03-23 20:02:00,
2013-03-23 14:07:00,43.5,-1.2,29.85,North,355,18.0,29.0,15,0.00,,,0.00,Wunderground v.1.15,2013-03-23 20:07:00,
2013-03-23 14:12:00,43.7,-1.0,29.86,NNW,347,20.0,28.0,15,0.00,,,0.00,Wunderground v.1.15,2013-03-23 20:12:00,
2013-03-23 14:18:00,43.3,-4.4,29.87,North,355,21.0,29.0,13,0.00,,,0.00,Wunderground v.1.15,2013-03-23 20:18:00,
2013-03-23 14:23:00,43.0,-4.6,29.87,North,360,21.0,30.0,13,0.00,,,0.00,Wunderground v.1.15,2013-03-23 20:23:00,
2013-03-23 14:29:00,42.7,-6.5,29.87,North,11,23.0,30.0,12,0.00,,,0.00,Wunderground v.1.15,2013-03-23 20:29:00,
2013-03-23 14:35:00,42.6,-6.6,29.88,NNW,337,22.0,33.0,12,0.00,,,0.00,Wunderground v.1.15,2013-03-23 20:35:00,
2013-03-23 14:41:00,42.9,-8.1,29.87,NNW,348,19.0,21.0,11,0.00,,,0.00,Wunderground v.1.15,2013-03-23 20:41:00,
2013-03-23 14:47:00,42.2,-8.7,29.88,North,5,20.0,30.0,11,0.00,,,0.00,Wunderground v.1.15,2013-03-23 20:47:00,
2013-03-23 14:52:00,43.0,-8.1,29.89,North,5,20.0,20.0,11,0.00,,,0.00,Wunderground v.1.15,2013-03-23 20:52:00,
2013-03-23 14:58:00,43.0,-10.0,29.89,NNW,337,18.0,23.0,10,0.00,,,0.00,Wunderground v.1.15,2013-03-23 20:58:00,
2013-03-23 15:03:00,42.8,-12.3,29.89,NW,315,18.0,19.0,9,0.00,,,0.00,Wunderground v.1.15,2013-03-23 21:03:00,
2013-03-23 15:08:00,42.5,-12.5,29.90,North,360,17.0,22.0,9,0.00,,,0.00,Wunderground v.1.15,2013-03-23 21:08:00,
2013-03-23 15:14:00,42.0,-12.9,29.90,North,360,18.0,27.0,9,0.00,,,0.00,Wunderground v.1.15,2013-03-23 21:14:00,
2013-03-23 15:20:00,42.6,-14.8,29.90,North,355,18.0,18.0,8,0.00,,,0.00,Wunderground v.1.15,2013-03-23 21:20:00,
2013-03-23 15:25:00,42.3,-15.0,29.90,North,355,18.0,30.0,8,0.00,,,0.00,Wunderground v.1.15,2013-03-23 21:25:00,
2013-03-23 15:32:00,43.3,-14.2,29.90,NW,311,18.0,18.0,8,0.00,,,0.00,Wunderground v.1.15,2013-03-23 21:32:00,
2013-03-23 15:37:00,42.3,-15.0,29.91,North,355,19.0,22.0,8,0.00,,,0.00,Wunderground v.1.15,2013-03-23 21:37:00,
2013-03-23 15:43:00,42.4,-14.9,29.91,NNW,336,21.0,27.0,8,0.00,,,0.00,Wunderground v.1.15,2013-03-23 21:43:00,
2013-03-23 15:49:00,42.8,-14.6,29.91,North,350,19.0,29.0,8,0.00,,,0.00,Wunderground v.1.15,2013-03-23 21:49:00,
2013-03-23 15:54:00,42.3,-15.0,29.92,North,5,19.0,30.0,8,0.00,,,0.00,Wunderground v.1.15,2013-03-23 21:54:00,
2013-03-23 16:00:00,42.7,-14.7,29.92,NNW,333,18.0,18.0,8,0.00,,,0.00,Wunderground v.1.15,2013-03-23 22:00:00,
2013-03-23 16:06:00,43.0,-12.1,29.92,North,10,16.0,18.0,9,0.00,,,0.00,Wunderground v.1.15,2013-03-23 22:06:00,
2013-03-23 16:11:00,42.7,-12.4,29.92,North,350,16.0,23.0,9,0.00,,,0.00,Wunderground v.1.15,2013-03-23 22:11:00,
2013-03-23 16:17:00,42.0,-12.9,29.92,North,9,18.0,25.0,9,0.00,,,0.00,Wunderground v.1.15,2013-03-23 22:17:00,
2013-03-23 16:22:00,42.4,-12.6,29.93,NW,323,17.0,18.0,9,0.00,,,0.00,Wunderground v.1.15,2013-03-23 22:22:00,
2013-03-23 16:27:00,42.4,-12.6,29.94,NNW,333,17.0,28.0,9,0.00,,,0.00,Wunderground v.1.15,2013-03-23 22:27:00,
2013-03-23 16:32:00,41.6,-13.2,29.94,NNW,331,17.0,18.0,9,0.00,,,0.00,Wunderground v.1.15,2013-03-23 22:32:00,
2013-03-23 16:38:00,42.4,-12.6,29.95,NNW,338,16.0,25.0,9,0.00,,,0.00,Wunderground v.1.15,2013-03-23 22:38:00,
2013-03-23 16:43:00,42.4,-12.6,29.94,NW,309,18.0,24.0,9,0.00,,,0.00,Wunderground v.1.15,2013-03-23 22:43:00,
2013-03-23 16:49:00,42.1,-15.2,29.94,NNE,29,18.0,24.0,8,0.00,,,0.00,Wunderground v.1.15,2013-03-23 22:49:00,
2013-03-23 16:54:00,41.8,-13.0,29.94,North,355,18.0,19.0,9,0.00,,,0.00,Wunderground v.1.15,2013-03-23 22:54:00,
2013-03-23 17:00:00,41.8,-13.0,29.95,North,355,17.0,19.0,9,0.00,,,0.00,Wunderground v.1.15,2013-03-23 23:00:00,
2013-03-23 17:06:00,41.6,-13.2,29.95,North,5,17.0,24.0,9,0.00,,,0.00,Wunderground v.1.15,2013-03-23 23:06:00,
2013-03-23 17:11:00,41.8,-10.9,29.96,North,9,16.0,22.0,10,0.00,,,0.00,Wunderground v.1.15,2013-03-23 23:11:00,
2013-03-23 17:17:00,41.8,-10.9,29.96,North,5,16.0,22.0,10,0.00,,,0.00,Wunderground v.1.15,2013-03-23 23:17:00,
2013-03-23 17:23:00,41.6,-11.1,29.96,NNE,13,18.0,30.0,10,0.00,,,0.00,Wunderground v.1.15,2013-03-23 23:23:00,
2013-03-23 17:28:00,41.6,-11.1,29.97,North,5,18.0,30.0,10,0.00,,,0.00,Wunderground v.1.15,2013-03-23 23:28:00,
2013-03-23 17:33:00,42.0,-12.9,29.97,North,360,15.0,19.0,9,0.00,,,0.00,Wunderground v.1.15,2013-03-23 23:33:00,
2013-03-23 17:38:00,41.9,-13.0,29.97,North,360,13.0,19.0,9,0.00,,,0.00,Wunderground v.1.15,2013-03-23 23:38:00,
2013-03-23 17:44:00,41.9,-13.0,29.97,North,360,14.0,19.0,9,0.00,,,0.00,Wunderground v.1.15,2013-03-23 23:44:00,
2013-03-23 17:49:00,41.7,-13.1,29.97,NNW,331,16.0,19.0,9,0.00,,,0.00,Wunderground v.1.15,2013-03-23 23:49:00,
2013-03-23 17:55:00,41.2,-13.5,29.98,NNW,336,16.0,24.0,9,0.00,,,0.00,Wunderground v.1.15,2013-03-23 23:55:00,
2013-03-23 18:00:00,41.1,-13.6,29.98,North,355,16.0,16.0,9,0.00,,,0.00,Wunderground v.1.15,2013-03-24 00:00:00,
2013-03-23 18:06:00,41.7,-13.1,29.98,NW,313,13.0,22.0,9,0.00,,,0.00,Wunderground v.1.15,2013-03-24 00:06:00,
2013-03-23 18:11:00,41.6,-13.2,29.99,North,350,12.0,14.0,9,0.00,,,0.00,Wunderground v.1.15,2013-03-24 00:11:00,
2013-03-23 18:17:00,40.9,-13.7,29.99,North,350,15.0,21.0,9,0.00,,,0.00,Wunderground v.1.15,2013-03-24 00:17:00,
2013-03-23 18:23:00,40.9,-13.7,30.00,NNW,342,14.0,15.0,9,0.00,,,0.00,Wunderground v.1.15,2013-03-24 00:23:00,
2013-03-23 18:29:00,40.6,-14.0,30.00,NNW,342,14.0,18.0,9,0.00,,,0.00,Wunderground v.1.15,2013-03-24 00:29:00,
2013-03-23 18:34:00,40.4,-14.1,30.00,NW,326,14.0,17.0,9,0.00,,,0.00,Wunderground v.1.15,2013-03-24 00:34:00,
2013-03-23 18:39:00,40.1,-14.4,30.01,North,355,14.0,18.0,9,0.00,,,0.00,Wunderground v.1.15,2013-03-24 00:39:00,
2013-03-23 18:45:00,39.8,-14.6,30.01,NNW,348,13.0,18.0,9,0.00,,,0.00,Wunderground v.1.15,2013-03-24 00:45:00,
2013-03-23 18:50:00,39.7,-14.7,30.01,North,355,14.0,14.0,9,0.00,,,0.00,Wunderground v.1.15,2013-03-24 00:50:00,
2013-03-23 18:56:00,39.5,-12.7,30.02,NNW,347,16.0,22.0,10,0.00,,,0.00,Wunderground v.1.15,2013-03-24 00:56:00,
2013-03-23 19:01:00,39.4,-12.8,30.02,NNW,345,14.0,15.0,10,0.00,,,0.00,Wunderground v.1.15,2013-03-24 01:01:00,
2013-03-23 19:06:00,39.3,-12.9,30.03,North,355,11.0,15.0,10,0.00,,,0.00,Wunderground v.1.15,2013-03-24 01:06:00,
2013-03-23 19:12:00,39.2,-13.0,30.03,North,350,12.0,20.0,10,0.00,,,0.00,Wunderground v.1.15,2013-03-24 01:12:00,
2013-03-23 19:17:00,39.1,-13.0,30.04,NNE,15,12.0,20.0,10,0.00,,,0.00,Wunderground v.1.15,2013-03-24 01:17:00,
2013-03-23 19:23:00,38.9,-13.2,30.04,NNW,339,12.0,17.0,10,0.00,,,0.00,Wunderground v.1.15,2013-03-24 01:23:00,
2013-03-23 19:29:00,38.8,-13.3,30.04,NW,324,14.0,24.0,10,0.00,,,0.00,Wunderground v.1.15,2013-03-24 01:29:00,
2013-03-23 19:34:00,38.6,-13.4,30.05,NNW,336,13.0,16.0,10,0.00,,,0.00,Wunderground v.1.15,2013-03-24 01:34:00,
2013-03-23 19:40:00,38.4,-11.7,30.05,North,351,10.0,10.0,11,0.00,,,0.00,Wunderground v.1.15,2013-03-24 01:40:00,
2013-03-23 19:45:00,38.3,-11.8,30.05,North,5,10.0,19.0,11,0.00,,,0.00,Wunderground v.1.15,2013-03-24 01:45:00,
2013-03-23 19:51:00,38.2,-11.8,30.06,North,360,11.0,11.0,11,0.00,,,0.00,Wunderground v.1.15,2013-03-24 01:51:00,
2013-03-23 19:57:00,37.9,-12.1,30.07,North,5,11.0,11.0,11,0.00,,,0.00,Wunderground v.1.15,2013-03-24 01:57:00,
2013-03-23 20:03:00,37.9,-12.1,30.07,North,355,10.0,12.0,11,0.00,,,0.00,Wunderground v.1.15,2013-03-24 02:03:00,
2013-03-23 20:08:00,37.7,-14.1,30.07,North,355,10.0,12.0,10,0.00,,,0.00,Wunderground v.1.15,2013-03-24 02:08:00,
2013-03-23 20:14:00,37.6,-12.3,30.08,North,355,9.0,11.0,11,0.00,,,0.00,Wunderground v.1.15,2013-03-24 02:14:00,
2013-03-23 20:19:00,37.4,-12.5,30.08,North,355,9.0,13.0,11,0.00,,,0.00,Wunderground v.1.15,2013-03-24 02:19:00,
2013-03-23 20:24:00,37.3,-12.5,30.08,NNW,336,8.0,9.0,11,0.00,,,0.00,Wunderground v.1.15,2013-03-24 02:24:00,
2013-03-23 20:29:00,37.1,-12.7,30.09,NNW,348,7.0,9.0,11,0.00,,,0.00,Wunderground v.1.15,2013-03-24 02:29:00,
2013-03-23 20:35:00,37.0,-12.8,30.09,North,355,8.0,9.0,11,0.00,,,0.00,Wunderground v.1.15,2013-03-24 02:35:00,
2013-03-23 20:40:00,36.8,-12.9,30.10,North,350,7.0,9.0,11,0.00,,,0.00,Wunderground v.1.15,2013-03-24 02:40:00,
2013-03-23 20:46:00,36.5,-13.2,30.10,North,349,5.0,9.0,11,0.00,,,0.00,Wunderground v.1.15,2013-03-24 02:46:00,
2013-03-23 20:52:00,36.2,-13.4,30.10,North,355,5.0,5.0,11,0.00,,,0.00,Wunderground v.1.15,2013-03-24 02:52:00,
2013-03-23 20:57:00,36.1,-13.5,30.11,North,355,5.0,9.0,11,0.00,,,0.00,Wunderground v.1.15,2013-03-24 02:57:00,
2013-03-23 21:03:00,35.9,-13.6,30.11,North,355,5.0,5.0,11,0.00,,,0.00,Wunderground v.1.15,2013-03-24 03:03:00,
2013-03-23 21:08:00,35.7,-13.8,30.11,North,355,4.0,5.0,11,0.00,,,0.00,Wunderground v.1.15,2013-03-24 03:08:00,
2013-03-23 21:13:00,35.5,-14.0,30.11,North,355,3.0,5.0,11,0.00,,,0.00,Wunderground v.1.15,2013-03-24 03:13:00,
2013-03-23 21:19:00,35.4,-14.0,30.12,North,355,3.0,6.0,11,0.00,,,0.00,Wunderground v.1.15,2013-03-24 03:19:00,
2013-03-23 21:24:00,35.2,-14.2,30.13,North,355,3.0,4.0,11,0.00,,,0.00,Wunderground v.1.15,2013-03-24 03:24:00,
2013-03-23 21:29:00,34.8,-14.5,30.13,North,355,2.0,4.0,11,0.00,,,0.00,Wunderground v.1.15,2013-03-24 03:29:00,
2013-03-23 21:34:00,34.1,-15.1,30.14,North,355,1.0,2.0,11,0.00,,,0.00,Wunderground v.1.15,2013-03-24 03:34:00,
2013-03-23 21:40:00,33.3,-14.0,30.14,North,355,1.0,1.0,12,0.00,,,0.00,Wunderground v.1.15,2013-03-24 03:40:00,
2013-03-23 21:46:00,32.7,-14.4,30.14,North,355,2.0,5.0,12,0.00,,,0.00,Wunderground v.1.15,2013-03-24 03:46:00,
2013-03-23 21:52:00,32.1,-13.3,30.14,North,355,3.0,3.0,13,0.00,,,0.00,Wunderground v.1.15,2013-03-24 03:52:00,
2013-03-23 21:57:00,31.8,-13.6,30.14,North,355,3.0,6.0,13,0.00,,,0.00,Wunderground v.1.15,2013-03-24 03:57:00,
2013-03-23 22:00:00,31.6,-13.7,30.15,North,355,3.0,4.0,13,0.00,,,0.00,Wunderground v.1.15,2013-03-24 04:00:00,
2013-03-23 22:02:00,31.6,-13.7,30.15,North,355,3.0,4.0,13,0.00,,,0.00,Wunderground v.1.15,2013-03-24 04:02:00,
2013-03-23 22:05:00,31.5,-15.4,30.15,North,355,3.0,5.0,12,0.00,,,0.00,Wunderground v.1.15,2013-03-24 04:05:00,
2013-03-23 22:06:00,31.5,-15.4,30.15,North,355,3.0,5.0,12,0.00,,,0.00,Wunderground v.1.15,2013-03-24 04:06:00,
2013-03-23 22:11:00,31.5,-15.4,30.15,North,355,4.0,6.0,12,0.00,,,0.00,Wunderground v.1.15,2013-03-24 04:11:00,
2013-03-23 22:17:00,31.4,-13.9,30.15,North,355,3.0,6.0,13,0.00,,,0.00,Wunderground v.1.15,2013-03-24 04:17:00,